Time;durP1;ratioP1;P1;durP2;ratioP2;P2;SDS_P1;SDS_P2;PMS_P1;PMS_P2;Temp;Humidity;BMP_temperature;BMP_pressure;BME280_temperature;BME280_humidity;BME280_pressure;Samples;Min_cycle;Max_cycle;Signal;HPM_P1;HPM_P2
2023/05/24 00:00:56;;;;;;;8.43;3.00;;;11.00;76.90;;;;;;5072402;28;20437;-74
2023/05/24 00:03:22;;;;;;;7.28;2.78;;;11.00;77.00;;;;;;5066854;28;20572;-74
2023/05/24 00:05:51;;;;;;;6.18;3.03;;;10.90;77.40;;;;;;5069303;28;20486;-74
2023/05/24 00:08:17;;;;;;;8.55;3.60;;;10.80;77.90;;;;;;5071481;28;20455;-74
2023/05/24 00:10:45;;;;;;;7.07;3.60;;;10.80;78.10;;;;;;5075733;28;20420;-74
2023/05/24 00:13:11;;;;;;;8.23;3.30;;;10.70;78.80;;;;;;5067831;28;20430;-74
2023/05/24 00:15:40;;;;;;;7.95;3.05;;;10.70;79.10;;;;;;5067039;28;20433;-74
2023/05/24 00:18:06;;;;;;;8.40;2.90;;;10.70;79.00;;;;;;5070403;28;20922;-75
2023/05/24 00:20:33;;;;;;;7.55;3.30;;;10.60;79.00;;;;;;5068712;28;20431;-74
2023/05/24 00:23:00;;;;;;;10.23;4.38;;;10.60;79.30;;;;;;5061245;28;20431;-74
2023/05/24 00:25:27;;;;;;;7.72;3.22;;;10.60;79.50;;;;;;5066317;28;20437;-74
2023/05/24 00:27:53;;;;;;;6.22;3.28;;;10.60;79.10;;;;;;5069139;28;20450;-74
2023/05/24 00:30:20;;;;;;;6.93;3.15;;;10.60;78.70;;;;;;5076733;28;20446;-74
2023/05/24 00:32:48;;;;;;;7.40;3.00;;;10.50;78.40;;;;;;5075554;28;20823;-74
2023/05/24 00:35:15;;;;;;;7.97;3.00;;;10.50;78.10;;;;;;5078387;28;20496;-74
2023/05/24 00:37:44;;;;;;;7.37;3.00;;;10.50;78.30;;;;;;5084356;28;20411;-74
2023/05/24 00:40:11;;;;;;;9.13;3.08;;;10.40;78.20;;;;;;5079541;28;20967;-73
2023/05/24 00:42:38;;;;;;;8.55;3.78;;;10.40;78.50;;;;;;5070254;28;20924;-73
2023/05/24 00:45:06;;;;;;;5.93;3.10;;;10.30;78.90;;;;;;5069461;28;20959;-73
2023/05/24 00:47:33;;;;;;;6.18;3.20;;;10.30;79.20;;;;;;5067973;28;20755;-73
2023/05/24 00:50:02;;;;;;;7.05;3.72;;;10.20;79.30;;;;;;5076156;28;20433;-73
2023/05/24 00:52:29;;;;;;;9.85;3.95;;;10.20;79.80;;;;;;5078462;28;20414;-74
2023/05/24 00:54:56;;;;;;;7.78;3.75;;;10.20;79.70;;;;;;5078461;28;20482;-74
2023/05/24 00:57:23;;;;;;;8.40;2.85;;;10.20;80.50;;;;;;5081146;28;20445;-74
2023/05/24 00:59:51;;;;;;;7.80;3.03;;;10.10;81.00;;;;;;5080221;28;20963;-74
2023/05/24 01:02:17;;;;;;;9.48;3.30;;;10.10;81.00;;;;;;5075114;28;20824;-74
2023/05/24 01:04:44;;;;;;;6.78;3.17;;;10.10;81.10;;;;;;5071218;28;20450;-74
2023/05/24 01:07:25;;;;;;;6.32;3.30;;;10.10;81.60;;;;;;5085262;28;20435;-74
2023/05/24 01:10:04;;;;;;;8.82;3.22;;;10.00;82.00;;;;;;5068800;28;20427;-74
2023/05/24 01:12:45;;;;;;;6.68;3.30;;;10.00;81.90;;;;;;5080153;28;20431;-73
2023/05/24 01:15:22;;;;;;;6.75;3.78;;;9.90;81.80;;;;;;5062623;28;20995;-74
2023/05/24 01:18:00;;;;;;;7.47;3.30;;;9.80;82.30;;;;;;5075930;28;20423;-74
2023/05/24 01:20:30;;;;;;;8.00;3.35;;;9.80;82.70;;;;;;5076088;28;20427;-74
2023/05/24 01:23:17;;;;;;;7.13;3.17;;;9.80;83.20;;;;;;5078733;28;20427;-74
2023/05/24 01:26:16;;;;;;;7.60;3.37;;;9.80;83.50;;;;;;5079636;28;20416;-74
2023/05/24 01:28:46;;;;;;;7.50;3.43;;;9.80;83.60;;;;;;5072395;28;20439;-74
2023/05/24 01:31:14;;;;;;;6.38;3.85;;;9.70;84.30;;;;;;5068497;28;20427;-74
2023/05/24 01:33:42;;;;;;;6.97;3.33;;;9.70;84.50;;;;;;5076193;28;20437;-75
2023/05/24 01:36:09;;;;;;;7.10;3.30;;;9.70;84.30;;;;;;5070108;28;20469;-74
2023/05/24 01:38:36;;;;;;;9.05;3.63;;;9.60;84.30;;;;;;5068705;28;20407;-75
2023/05/24 01:41:12;;;;;;;8.93;3.40;;;9.60;85.00;;;;;;5081267;28;20410;-75
2023/05/24 01:43:43;;;;;;;9.02;3.28;;;9.60;85.30;;;;;;5070299;28;20831;-75
2023/05/24 01:46:18;;;;;;;7.22;3.50;;;9.50;85.20;;;;;;5065990;28;20431;-74
2023/05/24 01:48:55;;;;;;;8.70;3.80;;;9.50;85.40;;;;;;5068775;28;20493;-74
2023/05/24 01:51:25;;;;;;;8.65;3.20;;;9.40;85.70;;;;;;5070308;28;20953;-74
2023/05/24 01:53:52;;;;;;;7.03;3.03;;;9.40;86.10;;;;;;5081208;28;20449;-74
2023/05/24 01:56:21;;;;;;;7.32;3.13;;;9.30;86.20;;;;;;5081136;28;20427;-75
2023/05/24 01:58:51;;;;;;;8.97;3.10;;;9.30;86.50;;;;;;5079599;28;20594;-74
2023/05/24 02:01:20;;;;;;;8.43;2.95;;;9.20;86.40;;;;;;5073365;28;20440;-74
2023/05/24 02:03:47;;;;;;;7.57;3.20;;;9.20;87.30;;;;;;5077463;28;21065;-74
2023/05/24 02:06:14;;;;;;;7.47;3.40;;;9.20;88.10;;;;;;5069273;28;20430;-75
2023/05/24 02:08:40;;;;;;;9.02;3.40;;;9.10;88.50;;;;;;5068784;28;20431;-74
2023/05/24 02:11:07;;;;;;;6.25;3.20;;;9.10;88.70;;;;;;5080518;28;20422;-74
2023/05/24 02:13:34;;;;;;;6.97;3.10;;;9.10;89.10;;;;;;5070867;28;20922;-74
2023/05/24 02:16:00;;;;;;;6.90;3.00;;;9.10;88.70;;;;;;5065484;28;20936;-74
2023/05/24 02:18:33;;;;;;;7.88;3.20;;;9.10;88.90;;;;;;5066271;28;20434;-75
2023/05/24 02:21:00;;;;;;;6.15;3.47;;;9.10;89.00;;;;;;5069216;28;20525;-74
2023/05/24 02:23:27;;;;;;;7.07;3.47;;;9.10;89.30;;;;;;5074499;28;20433;-74
2023/05/24 02:25:55;;;;;;;7.45;3.22;;;9.10;89.50;;;;;;5080239;28;20927;-73
2023/05/24 02:28:22;;;;;;;9.55;3.40;;;9.00;89.50;;;;;;5073356;28;20431;-74
2023/05/24 02:30:48;;;;;;;8.35;3.30;;;9.00;90.00;;;;;;5066692;28;20431;-73
2023/05/24 02:33:15;;;;;;;9.40;3.37;;;9.00;89.50;;;;;;5066892;28;20412;-73
2023/05/24 02:35:43;;;;;;;8.90;3.60;;;8.90;89.90;;;;;;5067003;28;20435;-73
2023/05/24 02:38:10;;;;;;;6.80;3.40;;;8.90;90.10;;;;;;5068631;28;21059;-74
2023/05/24 02:40:37;;;;;;;7.47;3.95;;;8.90;90.20;;;;;;5075827;28;20431;-74
2023/05/24 02:43:03;;;;;;;7.63;4.20;;;8.90;90.20;;;;;;5073423;28;20427;-74
2023/05/24 02:45:30;;;;;;;6.73;3.50;;;8.90;90.20;;;;;;5079213;28;20431;-74
2023/05/24 02:47:57;;;;;;;9.95;3.65;;;8.80;90.30;;;;;;5070699;28;20434;-73
2023/05/24 02:50:23;;;;;;;7.05;3.70;;;8.80;90.20;;;;;;5073934;28;20458;-73
2023/05/24 02:52:52;;;;;;;6.50;3.40;;;8.70;90.50;;;;;;5077499;28;20772;-74
2023/05/24 02:55:18;;;;;;;8.13;3.50;;;8.70;90.80;;;;;;5080180;28;20410;-74
2023/05/24 02:57:46;;;;;;;6.77;3.37;;;8.70;91.20;;;;;;5071092;28;20411;-74
2023/05/24 03:00:14;;;;;;;8.00;3.40;;;8.70;90.90;;;;;;5070327;28;20506;-74
2023/05/24 03:02:41;;;;;;;8.00;3.50;;;8.70;91.00;;;;;;5066267;28;20439;-74
2023/05/24 03:05:08;;;;;;;7.47;3.63;;;8.70;91.10;;;;;;5068104;28;20914;-74
2023/05/24 03:07:35;;;;;;;6.80;3.58;;;8.70;91.20;;;;;;5073090;28;20422;-74
2023/05/24 03:10:03;;;;;;;5.00;3.50;;;8.70;91.00;;;;;;5072710;28;20440;-74
2023/05/24 03:12:30;;;;;;;7.32;3.70;;;8.70;91.00;;;;;;5083241;28;20849;-74
2023/05/24 03:14:57;;;;;;;8.70;3.78;;;8.60;91.10;;;;;;5070833;28;20429;-74
2023/05/24 03:17:23;;;;;;;8.57;4.05;;;8.60;91.30;;;;;;5074922;28;20440;-74
2023/05/24 03:19:51;;;;;;;8.75;3.40;;;8.60;91.60;;;;;;5072980;28;20438;-74
2023/05/24 03:22:17;;;;;;;7.70;3.47;;;8.60;91.70;;;;;;5078843;28;20426;-74
2023/05/24 03:24:46;;;;;;;9.88;3.55;;;8.60;91.50;;;;;;5075356;28;20437;-74
2023/05/24 03:27:14;;;;;;;6.50;3.53;;;8.60;91.80;;;;;;5076813;28;20836;-74
2023/05/24 03:29:40;;;;;;;7.70;3.30;;;8.50;91.90;;;;;;5069473;28;20431;-73
2023/05/24 03:32:07;;;;;;;7.93;3.60;;;8.50;92.10;;;;;;5080498;28;20460;-74
2023/05/24 03:34:34;;;;;;;7.75;4.05;;;8.50;91.80;;;;;;5070369;28;20933;-73
2023/05/24 03:37:00;;;;;;;7.17;3.30;;;8.50;91.90;;;;;;5070680;28;20442;-73
2023/05/24 03:39:27;;;;;;;9.40;3.90;;;8.50;92.00;;;;;;5074731;28;20434;-73
2023/05/24 03:41:54;;;;;;;9.32;3.65;;;8.50;92.50;;;;;;5076851;28;20416;-74
2023/05/24 03:44:22;;;;;;;8.85;3.72;;;8.40;92.50;;;;;;5077991;28;20430;-74
2023/05/24 03:46:48;;;;;;;9.98;4.00;;;8.40;92.60;;;;;;5078218;28;20909;-73
2023/05/24 03:49:15;;;;;;;9.98;3.90;;;8.50;92.80;;;;;;5072554;28;20442;-75
2023/05/24 03:51:42;;;;;;;8.23;4.00;;;8.50;93.10;;;;;;5077193;28;20466;-74
2023/05/24 03:54:09;;;;;;;9.13;4.30;;;8.50;93.30;;;;;;5071059;28;20431;-75
2023/05/24 03:56:36;;;;;;;9.20;4.38;;;8.50;92.90;;;;;;5067800;28;20432;-73
2023/05/24 03:59:03;;;;;;;9.95;4.38;;;8.40;93.10;;;;;;5074023;28;20411;-74
2023/05/24 04:01:31;;;;;;;10.02;3.80;;;8.40;93.10;;;;;;5067765;28;20427;-73
2023/05/24 04:04:00;;;;;;;10.33;4.90;;;8.30;93.40;;;;;;5080976;28;20433;-74
2023/05/24 04:06:28;;;;;;;10.03;5.20;;;8.30;93.70;;;;;;5066373;28;20497;-74
2023/05/24 04:08:55;;;;;;;9.68;4.10;;;8.30;93.90;;;;;;5074703;28;20438;-74
2023/05/24 04:11:22;;;;;;;10.35;4.75;;;8.40;94.20;;;;;;5074499;28;20427;-74
2023/05/24 04:13:49;;;;;;;11.98;5.20;;;8.40;94.20;;;;;;5066555;28;20462;-73
2023/05/24 04:16:16;;;;;;;6.53;3.90;;;8.50;94.10;;;;;;5076729;28;20453;-74
2023/05/24 04:18:45;;;;;;;7.93;4.15;;;8.50;94.10;;;;;;5074923;28;20432;-76
2023/05/24 04:21:12;;;;;;;10.02;4.32;;;8.50;94.10;;;;;;5072866;28;20416;-74
2023/05/24 04:23:38;;;;;;;13.10;5.00;;;8.60;93.90;;;;;;5076558;28;20934;-74
2023/05/24 04:26:06;;;;;;;8.55;3.92;;;8.50;93.80;;;;;;5080658;28;20411;-75
2023/05/24 04:28:33;;;;;;;10.03;3.90;;;8.60;94.20;;;;;;5072889;28;20453;-75
2023/05/24 04:30:59;;;;;;;9.40;4.18;;;8.60;94.30;;;;;;5077295;28;20433;-76
2023/05/24 04:33:26;;;;;;;7.65;4.07;;;8.60;94.50;;;;;;5082390;28;20442;-76
2023/05/24 04:35:54;;;;;;;8.13;3.70;;;8.60;94.50;;;;;;5080760;28;20481;-75
2023/05/24 04:38:23;;;;;;;9.23;4.30;;;8.60;94.60;;;;;;5073276;28;20423;-76
2023/05/24 04:40:49;;;;;;;8.52;4.30;;;8.70;94.50;;;;;;5078360;28;20438;-75
2023/05/24 04:43:16;;;;;;;9.20;4.50;;;8.70;94.60;;;;;;5068753;28;20483;-75
2023/05/24 04:45:43;;;;;;;8.67;4.43;;;8.70;94.80;;;;;;5076401;28;20443;-75
2023/05/24 04:48:10;;;;;;;8.52;4.00;;;8.70;94.70;;;;;;5070145;28;20506;-76
2023/05/24 04:50:36;;;;;;;10.75;4.75;;;8.70;94.70;;;;;;5084733;28;20440;-76
2023/05/24 04:53:04;;;;;;;9.38;4.60;;;8.80;94.70;;;;;;5069187;28;20438;-75
2023/05/24 04:55:31;;;;;;;8.47;4.50;;;8.80;94.80;;;;;;5067775;28;20462;-75
2023/05/24 04:57:58;;;;;;;10.63;4.78;;;8.90;94.90;;;;;;5073317;28;20414;-75
2023/05/24 05:00:25;;;;;;;11.95;5.25;;;8.90;94.90;;;;;;5078125;28;20433;-76
2023/05/24 05:02:51;;;;;;;9.95;4.70;;;8.90;95.00;;;;;;5079366;28;20898;-76
2023/05/24 05:05:18;;;;;;;7.68;4.45;;;8.90;94.90;;;;;;5073795;28;20454;-73
2023/05/24 05:07:45;;;;;;;11.50;5.00;;;9.00;95.00;;;;;;5076744;28;20796;-69
2023/05/24 05:10:14;;;;;;;9.30;4.40;;;9.00;95.00;;;;;;5075834;28;20425;-72
2023/05/24 05:12:40;;;;;;;11.60;5.55;;;9.10;95.20;;;;;;5074471;28;20442;-73
2023/05/24 05:15:08;;;;;;;10.45;5.07;;;9.10;95.10;;;;;;5079002;28;20416;-73
2023/05/24 05:17:35;;;;;;;11.00;5.82;;;9.20;95.10;;;;;;5070439;28;20443;-73
2023/05/24 05:20:02;;;;;;;7.40;4.22;;;9.20;95.10;;;;;;5069911;28;20852;-72
2023/05/24 05:22:29;;;;;;;10.55;5.00;;;9.20;95.00;;;;;;5071659;28;20480;-73
2023/05/24 05:24:55;;;;;;;9.60;5.05;;;9.30;95.00;;;;;;5073643;28;20435;-73
2023/05/24 05:27:24;;;;;;;9.45;4.55;;;9.30;95.00;;;;;;5075147;28;20445;-74
2023/05/24 05:29:50;;;;;;;11.00;4.93;;;9.30;95.10;;;;;;5072563;28;20434;-74
2023/05/24 05:32:17;;;;;;;11.38;4.90;;;9.30;95.10;;;;;;5070628;28;20431;-73
2023/05/24 05:34:44;;;;;;;8.03;4.60;;;9.40;95.10;;;;;;5062663;28;20435;-74
2023/05/24 05:37:11;;;;;;;12.13;5.20;;;9.40;95.00;;;;;;5068166;28;20546;-74
2023/05/24 05:39:37;;;;;;;12.82;6.10;;;9.50;95.00;;;;;;5071574;28;20427;-75
2023/05/24 05:42:05;;;;;;;9.85;5.47;;;9.50;94.90;;;;;;5076005;28;20450;-75
2023/05/24 05:44:33;;;;;;;13.05;5.60;;;9.50;94.70;;;;;;5080178;28;20433;-74
2023/05/24 05:46:59;;;;;;;14.88;5.50;;;9.60;94.50;;;;;;5077686;28;21063;-74
2023/05/24 05:49:26;;;;;;;9.98;4.82;;;9.60;94.50;;;;;;5073924;28;20454;-74
2023/05/24 05:51:53;;;;;;;9.10;5.00;;;9.60;94.50;;;;;;5081042;28;20442;-74
2023/05/24 05:54:20;;;;;;;11.15;5.50;;;9.60;94.50;;;;;;5078551;28;20431;-75
2023/05/24 05:56:47;;;;;;;13.65;5.30;;;9.70;94.70;;;;;;5062443;28;20933;-74
2023/05/24 05:59:14;;;;;;;9.05;5.10;;;9.70;94.90;;;;;;5073460;28;20581;-74
2023/05/24 06:01:44;;;;;;;12.07;5.50;;;9.80;94.90;;;;;;5069043;28;20428;-74
2023/05/24 06:04:11;;;;;;;13.20;5.30;;;9.80;95.00;;;;;;5082749;28;20505;-75
2023/05/24 06:06:38;;;;;;;12.23;5.95;;;9.90;94.90;;;;;;5077777;28;20473;-75
2023/05/24 06:09:04;;;;;;;13.13;4.95;;;9.90;95.00;;;;;;5074128;28;20426;-75
2023/05/24 06:11:31;;;;;;;13.88;5.88;;;10.00;94.80;;;;;;5084046;28;20441;-75
2023/05/24 06:13:58;;;;;;;12.87;5.50;;;10.10;94.50;;;;;;5073179;28;21032;-74
2023/05/24 06:16:25;;;;;;;14.45;6.10;;;10.10;94.10;;;;;;5071706;28;20438;-75
2023/05/24 06:18:53;;;;;;;10.98;5.95;;;10.20;93.60;;;;;;5069759;28;20434;-75
2023/05/24 06:21:20;;;;;;;11.70;5.80;;;10.30;93.50;;;;;;5069158;28;20420;-74
2023/05/24 06:23:47;;;;;;;15.43;6.40;;;10.30;92.90;;;;;;5069322;28;20424;-74
2023/05/24 06:26:13;;;;;;;13.07;6.30;;;10.40;92.90;;;;;;5070026;28;20423;-74
2023/05/24 06:28:40;;;;;;;15.80;6.18;;;10.40;93.10;;;;;;5069458;28;20415;-74
2023/05/24 06:31:07;;;;;;;13.63;6.53;;;10.60;92.90;;;;;;5068165;28;20682;-75
2023/05/24 06:33:34;;;;;;;13.15;6.20;;;10.70;92.40;;;;;;5076384;28;20432;-74
2023/05/24 06:36:02;;;;;;;15.60;6.60;;;10.80;92.30;;;;;;5072432;28;20433;-75
2023/05/24 06:38:28;;;;;;;12.05;6.10;;;10.90;91.70;;;;;;5076463;28;20901;-74
2023/05/24 06:40:55;;;;;;;16.75;5.60;;;11.00;91.30;;;;;;5066303;28;20435;-74
2023/05/24 06:43:22;;;;;;;11.98;5.72;;;11.20;90.90;;;;;;5070816;28;20439;-75
2023/05/24 06:45:48;;;;;;;12.57;5.53;;;11.30;90.60;;;;;;5065684;28;20435;-74
2023/05/24 06:48:15;;;;;;;16.33;5.30;;;11.40;89.70;;;;;;5066048;28;20443;-74
2023/05/24 06:50:42;;;;;;;12.50;5.60;;;11.50;88.60;;;;;;5075539;28;20901;-73
2023/05/24 06:53:10;;;;;;;16.13;5.75;;;11.50;88.30;;;;;;5082453;28;20489;-74
2023/05/24 06:55:37;;;;;;;11.90;5.20;;;11.60;86.20;;;;;;5070990;28;20411;-74
2023/05/24 06:58:05;;;;;;;13.38;5.10;;;11.70;86.30;;;;;;5071383;28;20886;-74
2023/05/24 07:00:33;;;;;;;10.23;4.30;;;11.80;86.50;;;;;;5067827;28;20462;-74
2023/05/24 07:03:00;;;;;;;10.60;4.60;;;12.00;85.90;;;;;;5069139;28;20438;-74
2023/05/24 07:05:26;;;;;;;12.65;5.10;;;12.20;83.90;;;;;;5075146;28;20447;-73
2023/05/24 07:07:53;;;;;;;9.18;5.20;;;12.40;82.50;;;;;;5078838;28;20794;-74
2023/05/24 07:10:21;;;;;;;13.13;5.30;;;12.60;80.00;;;;;;5070204;28;20435;-74
2023/05/24 07:12:48;;;;;;;12.15;5.10;;;12.70;77.90;;;;;;5070114;28;20801;-74
2023/05/24 07:15:14;;;;;;;10.32;4.50;;;12.80;77.20;;;;;;5068637;28;20407;-74
2023/05/24 07:17:41;;;;;;;11.20;4.68;;;12.80;77.80;;;;;;5066576;28;20431;-74
2023/05/24 07:20:10;;;;;;;9.85;4.40;;;12.90;78.10;;;;;;5073007;28;20421;-74
2023/05/24 07:22:37;;;;;;;10.73;5.32;;;13.00;76.70;;;;;;5068150;28;20999;-75
2023/05/24 07:25:04;;;;;;;12.93;4.60;;;13.10;75.90;;;;;;5088509;28;20414;-75
2023/05/24 07:27:32;;;;;;;9.65;4.50;;;13.20;75.60;;;;;;5068312;28;20435;-74
2023/05/24 07:29:59;;;;;;;10.68;4.53;;;13.20;73.70;;;;;;5071891;28;20422;-73
2023/05/24 07:32:25;;;;;;;8.82;4.15;;;13.20;72.40;;;;;;5068177;28;20431;-73
2023/05/24 07:34:52;;;;;;;12.00;4.03;;;13.20;72.40;;;;;;5074175;28;20411;-74
2023/05/24 07:37:22;;;;;;;9.50;4.40;;;13.30;73.00;;;;;;5081281;28;20437;-74
2023/05/24 07:39:50;;;;;;;10.95;4.30;;;13.30;72.10;;;;;;5076506;28;20426;-72
2023/05/24 07:42:16;;;;;;;9.13;4.65;;;13.30;72.20;;;;;;5075250;28;20790;-74
2023/05/24 07:44:44;;;;;;;11.57;4.35;;;13.40;71.70;;;;;;5069583;28;20419;-73
2023/05/24 07:47:11;;;;;;;10.55;4.30;;;13.50;72.00;;;;;;5072034;28;20439;-75
2023/05/24 07:49:38;;;;;;;10.23;4.60;;;13.50;71.70;;;;;;5066286;28;20474;-73
2023/05/24 07:52:05;;;;;;;9.20;4.10;;;13.30;71.20;;;;;;5076314;28;20777;-73
2023/05/24 07:54:32;;;;;;;9.45;4.55;;;13.30;72.00;;;;;;5073189;28;20415;-73
2023/05/24 07:56:58;;;;;;;10.77;4.60;;;13.30;72.50;;;;;;5087767;28;20498;-73
2023/05/24 07:59:25;;;;;;;11.32;4.20;;;13.30;71.90;;;;;;5100338;28;20421;-74
2023/05/24 08:01:54;;;;;;;12.20;4.88;;;13.40;73.00;;;;;;5100556;28;20435;-74
2023/05/24 08:04:21;;;;;;;9.20;3.50;;;13.50;72.70;;;;;;5103984;28;20512;-75
2023/05/24 08:06:48;;;;;;;10.00;5.00;;;13.60;70.40;;;;;;5105113;28;20470;-73
2023/05/24 08:09:14;;;;;;;9.02;4.28;;;13.80;70.10;;;;;;5083563;28;20427;-75
2023/05/24 08:11:41;;;;;;;10.20;3.88;;;14.30;69.20;;;;;;5090903;28;20803;-74
2023/05/24 08:14:08;;;;;;;9.73;4.03;;;14.80;65.40;;;;;;5072898;28;20442;-74
2023/05/24 08:16:34;;;;;;;8.68;3.83;;;15.40;64.30;;;;;;5075984;28;20944;-75
2023/05/24 08:19:03;;;;;;;6.47;3.50;;;15.90;60.60;;;;;;5080758;28;20439;-74
2023/05/24 08:21:30;;;;;;;7.45;3.40;;;16.40;56.10;;;;;;5078064;28;20411;-74
2023/05/24 08:23:58;;;;;;;5.75;3.22;;;16.60;53.20;;;;;;5071828;28;20497;-74
2023/05/24 08:26:25;;;;;;;7.40;3.40;;;16.60;51.60;;;;;;5072511;28;20415;-73
2023/05/24 08:28:52;;;;;;;7.53;3.33;;;16.70;52.30;;;;;;5072274;28;20896;-74
2023/05/24 08:31:19;;;;;;;8.18;3.90;;;16.80;52.10;;;;;;5079451;28;20434;-73
2023/05/24 08:33:49;;;;;;;9.38;3.85;;;16.80;51.90;;;;;;5072363;28;20458;-74
2023/05/24 08:36:17;;;;;;;8.32;4.10;;;16.60;52.80;;;;;;5071465;28;20427;-75
2023/05/24 08:38:43;;;;;;;7.27;3.40;;;16.40;53.40;;;;;;5074914;28;20469;-73
2023/05/24 08:41:11;;;;;;;7.75;3.60;;;16.30;54.50;;;;;;5071042;28;20905;-73
2023/05/24 08:43:38;;;;;;;7.57;4.05;;;16.30;54.10;;;;;;5068979;28;20427;-74
2023/05/24 08:46:06;;;;;;;8.18;4.18;;;16.20;53.30;;;;;;5076088;28;20431;-74
2023/05/24 08:48:34;;;;;;;8.40;4.00;;;16.20;53.80;;;;;;5073219;28;20579;-73
2023/05/24 08:51:02;;;;;;;8.50;4.25;;;16.10;54.30;;;;;;5071883;28;20499;-74
2023/05/24 08:53:32;;;;;;;8.88;4.00;;;16.00;55.30;;;;;;5091021;28;20424;-74
2023/05/24 08:55:59;;;;;;;6.88;3.80;;;16.00;56.20;;;;;;5093132;28;20505;-75
2023/05/24 08:58:26;;;;;;;9.45;4.40;;;15.90;55.60;;;;;;5099101;28;20410;-74
2023/05/24 09:00:53;;;;;;;8.40;3.95;;;15.90;54.60;;;;;;5077479;28;20434;-74
2023/05/24 09:03:20;;;;;;;8.52;4.80;;;15.90;54.70;;;;;;5071673;28;20435;-73
2023/05/24 09:05:47;;;;;;;7.53;4.40;;;16.00;55.20;;;;;;5073997;28;20456;-74
2023/05/24 09:08:17;;;;;;;8.47;4.30;;;16.10;55.40;;;;;;5070705;28;20548;-74
2023/05/24 09:10:45;;;;;;;7.35;4.05;;;16.10;54.10;;;;;;5084737;28;20429;-74
2023/05/24 09:13:15;;;;;;;9.20;4.35;;;16.00;52.60;;;;;;5082695;28;20418;-73
2023/05/24 09:15:42;;;;;;;9.68;4.22;;;15.80;53.50;;;;;;5073832;28;20443;-74
2023/05/24 09:18:10;;;;;;;8.07;4.45;;;15.70;56.20;;;;;;5074710;28;20436;-73
2023/05/24 09:20:36;;;;;;;8.38;4.40;;;15.60;55.70;;;;;;5068084;28;20423;-76
2023/05/24 09:23:06;;;;;;;9.60;4.23;;;15.60;56.00;;;;;;5070090;28;20428;-73
2023/05/24 09:25:33;;;;;;;9.45;4.50;;;15.60;56.80;;;;;;5074861;28;20424;-76
2023/05/24 09:28:06;;;;;;;8.50;4.70;;;15.60;57.40;;;;;;5073330;28;20462;-75
2023/05/24 09:30:32;;;;;;;7.47;4.37;;;15.60;58.30;;;;;;5069916;28;20532;-74
2023/05/24 09:33:02;;;;;;;9.60;4.80;;;15.60;57.60;;;;;;5069083;28;20798;-75
2023/05/24 09:35:30;;;;;;;8.18;4.80;;;15.60;56.60;;;;;;5070085;28;21044;-73
2023/05/24 09:37:58;;;;;;;9.73;5.43;;;15.30;56.40;;;;;;5069463;28;20431;-74
2023/05/24 09:40:25;;;;;;;8.85;5.07;;;15.10;58.00;;;;;;5064777;28;20755;-74
2023/05/24 09:43:08;;;;;;;10.80;5.88;;;15.10;60.00;;;;;;5089048;28;20560;-74
2023/05/24 09:45:39;;;;;;;8.68;5.57;;;15.20;59.70;;;;;;5071183;28;20439;-74
2023/05/24 09:48:11;;;;;;;9.57;6.00;;;15.50;60.60;;;;;;5075655;28;20469;-74
2023/05/24 09:50:37;;;;;;;9.93;6.90;;;15.90;57.60;;;;;;5069541;28;20511;-74
2023/05/24 09:53:05;;;;;;;9.43;7.00;;;16.50;55.70;;;;;;5077338;28;20446;-75
2023/05/24 09:55:35;;;;;;;9.38;6.43;;;17.00;52.90;;;;;;5080667;28;20427;-73
2023/05/24 09:58:07;;;;;;;8.60;5.97;;;17.10;48.50;;;;;;5078740;28;20479;-74
2023/05/24 10:00:35;;;;;;;8.85;6.50;;;17.00;50.20;;;;;;5068381;28;20913;-75
2023/05/24 10:03:03;;;;;;;9.50;6.10;;;17.00;49.60;;;;;;5068559;28;21140;-73
2023/05/24 10:05:30;;;;;;;9.32;6.18;;;16.90;50.20;;;;;;5070877;28;20431;-75
2023/05/24 10:07:58;;;;;;;8.80;6.90;;;16.60;49.80;;;;;;5064270;28;20432;-74
2023/05/24 10:10:28;;;;;;;11.15;7.57;;;16.40;52.40;;;;;;5069787;28;20423;-75
2023/05/24 10:12:56;;;;;;;10.13;9.02;;;16.30;53.70;;;;;;5070488;28;20477;-74
2023/05/24 10:15:24;;;;;;;11.02;8.73;;;16.30;54.00;;;;;;5069277;28;20821;-75
2023/05/24 10:17:51;;;;;;;10.13;9.00;;;16.30;54.20;;;;;;5067659;28;20649;-74
2023/05/24 10:20:18;;;;;;;10.68;8.10;;;16.20;54.00;;;;;;5067445;28;20511;-73
2023/05/24 10:22:47;;;;;;;9.55;8.50;;;16.10;56.30;;;;;;5070622;28;20506;-73
2023/05/24 10:25:20;;;;;;;10.75;8.90;;;16.20;56.00;;;;;;5079909;28;20417;-74
2023/05/24 10:27:49;;;;;;;14.25;9.63;;;16.10;54.40;;;;;;5075594;28;20428;-74
2023/05/24 10:30:22;;;;;;;13.00;9.45;;;16.00;54.80;;;;;;5068340;28;20434;-73
2023/05/24 10:32:51;;;;;;;12.05;9.30;;;16.00;54.40;;;;;;5068810;28;20815;-73
2023/05/24 10:35:19;;;;;;;11.80;9.00;;;16.10;56.40;;;;;;5067339;28;20429;-75
2023/05/24 10:37:47;;;;;;;10.90;9.10;;;16.30;56.50;;;;;;5069093;28;20485;-75
2023/05/24 10:40:18;;;;;;;9.68;6.78;;;16.50;56.60;;;;;;5068552;28;20431;-73
2023/05/24 10:42:46;;;;;;;10.93;6.00;;;16.80;51.00;;;;;;5074169;28;20450;-72
2023/05/24 10:45:34;;;;;;;11.02;5.80;;;16.60;48.90;;;;;;5075967;28;20434;-73
2023/05/24 10:48:39;;;;;;;8.30;5.30;;;16.50;49.70;;;;;;5065482;28;20543;-73
2023/05/24 10:51:35;;;;;;;9.80;6.18;;;16.60;52.30;;;;;;5052115;28;20426;-74
2023/05/24 10:54:12;;;;;;;8.40;6.30;;;16.90;51.80;;;;;;5065476;28;20506;-74
2023/05/24 10:56:45;;;;;;;10.55;6.40;;;17.20;49.10;;;;;;5072189;28;20407;-74
2023/05/24 10:59:36;;;;;;;9.70;7.60;;;17.20;50.80;;;;;;5068519;28;20929;-73
2023/05/24 11:02:04;;;;;;;11.53;8.60;;;17.30;51.30;;;;;;5061013;28;20424;-74
2023/05/24 11:04:33;;;;;;;10.15;8.45;;;17.20;50.10;;;;;;5064738;28;20423;-75
2023/05/24 11:07:05;;;;;;;9.95;8.70;;;17.10;51.70;;;;;;5073570;28;20435;-73
2023/05/24 11:09:32;;;;;;;11.82;7.80;;;17.20;52.50;;;;;;5067802;28;20834;-73
2023/05/24 11:12:03;;;;;;;9.40;7.00;;;17.60;52.00;;;;;;5077251;28;20434;-74
2023/05/24 11:14:34;;;;;;;11.07;6.85;;;18.00;50.70;;;;;;5069296;28;20430;-73
2023/05/24 11:17:00;;;;;;;8.32;6.70;;;18.20;48.60;;;;;;5068245;28;20780;-73
2023/05/24 11:19:33;;;;;;;8.07;6.50;;;18.30;46.70;;;;;;5072733;28;20608;-74
2023/05/24 11:22:02;;;;;;;8.57;6.70;;;18.20;46.40;;;;;;5070098;28;20416;-75
2023/05/24 11:24:31;;;;;;;9.30;6.78;;;18.30;45.90;;;;;;5075241;28;20501;-73
2023/05/24 11:26:59;;;;;;;10.48;6.30;;;18.30;46.90;;;;;;5066415;28;20512;-76
2023/05/24 11:29:26;;;;;;;10.35;6.75;;;18.30;46.90;;;;;;5070407;28;20422;-74
2023/05/24 11:31:54;;;;;;;10.70;8.00;;;18.40;46.70;;;;;;5068724;28;20427;-74
2023/05/24 11:34:22;;;;;;;9.20;7.33;;;18.30;46.30;;;;;;5070960;28;20461;-74
2023/05/24 11:36:50;;;;;;;9.88;7.30;;;18.20;47.80;;;;;;5072336;28;20514;-73
2023/05/24 11:39:18;;;;;;;9.10;7.45;;;18.30;47.10;;;;;;5080979;28;20887;-74
2023/05/24 11:41:47;;;;;;;10.10;7.27;;;18.10;46.80;;;;;;5073681;28;20427;-71
2023/05/24 11:44:17;;;;;;;9.90;7.90;;;18.00;48.20;;;;;;5068081;28;20431;-71
2023/05/24 11:46:44;;;;;;;8.70;7.50;;;18.00;48.90;;;;;;5068958;28;20477;-70
2023/05/24 11:49:13;;;;;;;9.32;6.68;;;17.70;46.20;;;;;;5077577;28;20422;-70
2023/05/24 11:51:40;;;;;;;10.73;6.45;;;17.30;48.20;;;;;;5081003;28;20438;-72
2023/05/24 11:54:07;;;;;;;8.90;6.60;;;16.90;48.20;;;;;;5075468;28;20439;-70
2023/05/24 11:56:34;;;;;;;11.03;7.40;;;16.60;49.60;;;;;;5067417;28;20423;-71
2023/05/24 11:59:14;;;;;;;7.90;6.70;;;16.40;52.00;;;;;;5061278;28;20429;-70
2023/05/24 12:01:41;;;;;;;11.70;7.68;;;16.40;53.60;;;;;;5064553;28;20424;-70
2023/05/24 12:04:09;;;;;;;10.25;7.18;;;16.40;54.90;;;;;;5071646;28;20434;-71
2023/05/24 12:06:38;;;;;;;8.85;6.53;;;16.40;54.20;;;;;;5087498;28;20414;-71
2023/05/24 12:09:07;;;;;;;9.23;6.32;;;16.50;54.20;;;;;;5073301;28;21031;-70
2023/05/24 12:11:34;;;;;;;11.23;10.02;;;16.60;53.20;;;;;;5068028;28;21027;-69
2023/05/24 12:14:01;;;;;;;10.05;6.28;;;16.80;54.90;;;;;;5076649;28;21007;-70
2023/05/24 12:16:31;;;;;;;9.00;5.10;;;16.80;52.60;;;;;;5079554;28;20766;-72
2023/05/24 12:18:58;;;;;;;9.30;5.40;;;16.80;51.20;;;;;;5076461;28;20423;-73
2023/05/24 12:21:30;;;;;;;9.83;5.20;;;16.70;51.50;;;;;;5068864;28;20539;-72
2023/05/24 12:23:57;;;;;;;10.05;5.10;;;16.60;51.50;;;;;;5069949;28;20915;-74
2023/05/24 12:26:23;;;;;;;8.85;5.18;;;16.60;51.70;;;;;;5076540;28;20414;-74
2023/05/24 12:28:55;;;;;;;9.48;5.20;;;16.50;51.70;;;;;;5076375;28;20415;-74
2023/05/24 12:31:22;;;;;;;8.43;5.28;;;16.50;52.20;;;;;;5081120;28;20431;-75
2023/05/24 12:33:50;;;;;;;8.05;4.70;;;16.60;52.60;;;;;;5086242;28;20420;-74
2023/05/24 12:36:17;;;;;;;8.52;4.60;;;16.70;51.60;;;;;;5075032;28;20413;-74
2023/05/24 12:38:44;;;;;;;8.07;4.35;;;16.90;50.60;;;;;;5084129;28;20912;-75
2023/05/24 12:41:11;;;;;;;7.50;4.60;;;17.10;51.00;;;;;;5071653;28;20415;-74
2023/05/24 12:43:39;;;;;;;7.53;4.68;;;17.30;50.30;;;;;;5079926;28;21096;-74
2023/05/24 12:46:06;;;;;;;8.43;4.68;;;17.60;49.40;;;;;;5073942;28;20426;-66
2023/05/24 12:48:33;;;;;;;9.50;4.55;;;17.90;48.80;;;;;;5067246;28;20434;-71
2023/05/24 12:51:02;;;;;;;9.70;4.97;;;18.30;49.30;;;;;;5072071;28;20534;-70
2023/05/24 12:53:29;;;;;;;7.57;3.80;;;18.60;45.80;;;;;;5068568;28;20424;-70